Latest Coastal Weather Observations for Hervey Bay

IDQ60701

Issued at 1:51 pm EST Saturday 25 March 2017 (issued every 10 minutes, with the page automatically refreshed every 10 minutes)

About coastal observations | Map of coastal stations | Coastal observations for QLD | Marine services | Other Formats
Station Details ID: 040405 Name: HERVEY BAY AIRPORT Lat: -25.32 Lon: 152.88 Height: 12.98 m
Data from the previous 72 hours. | See also: Recent months at Hervey Bay
Date/Time
EST
Temp
°C
Wind Pressure Rain since
9am
mm
Weather Cloud Vis
km
Sea
Height
m
Swell
Dir  Spd
kts
Gust
kts
hPa Trend Height
m
Period
s
Dir
25/01:30pm 29.0 ESE 11 16 1012.4 - 0.2 - Partly cloudy 10 - - - -
25/01:00pm 28.8 ESE 10 15 1012.7 - 0.2 - Partly cloudy 10 - - - -
25/12:30pm 27.1 SE 8 13 1013.3 - 0.2 - Partly cloudy 10 - - - -
25/12:00pm 25.6 SE 14 23 1014.0 - 0.2 - Cloudy 10 - - - -
25/11:30am 28.0 SE 10 17 1014.1 - 0.2 - Partly cloudy 10 - - - -
25/11:00am 27.8 SSE 9 12 1014.6 - 0.2 - Partly cloudy 10 - - - -
25/10:30am 28.4 SE 10 16 1014.8 - 0.2 - Partly cloudy 10 - - - -
25/10:00am 28.5 SE 11 20 1014.7 - 0.2 - Partly cloudy 10 - - - -
25/09:30am 28.0 SE 11 17 1014.6 - 0.0 - Partly cloudy 10 - - - -
25/09:00am 27.4 SSE 10 15 1014.6 - 0.6 - Mostly clear 10 - - - -
25/08:30am 27.0 SSE 9 11 1014.5 - 0.6 - - 10 - - - -
25/08:00am 25.3 SSE 3 7 1014.4 - 0.6 - Partly cloudy 10 - - - -
25/07:30am 24.1 SSW 5 6 1014.1 - 0.6 - Partly cloudy 10 - - - -
25/07:00am 23.9 SW 5 6 1013.6 - 0.6 - Partly cloudy 10 - - - -
25/06:30am 23.7 SSW 2 4 1013.3 - 0.6 - Partly cloudy 10 - - - -
25/06:07am 23.5 SE 1 4 1013.1 - 0.6 - Partly cloudy 10 - - - -
25/06:00am 23.5 SE 2 4 1013.1 - 0.6 Recent precip. Cloudy 10 - - - -
25/05:54am 23.5 SE 3 5 1013.0 - 0.6 - Partly cloudy 10 - - - -
25/05:40am 23.5 SSE 6 9 1013.1 - 0.6 - Partly cloudy 4 - - - -
25/05:31am 23.6 S 5 8 1013.0 - 0.6 - Partly cloudy 5 - - - -
25/05:30am 23.6 S 4 6 1013.1 - 0.4 - Partly cloudy 6 - - - -
25/05:04am 23.4 SE 3 6 1012.8 - 0.2 - Partly cloudy 10 - - - -
25/05:00am 23.5 E 5 7 1012.8 - 0.2 - Partly cloudy 10 - - - -
25/04:30am 23.5 S 4 5 1012.8 - 0.2 - Partly cloudy 10 - - - -
25/04:23am 23.5 S 5 7 1012.7 - 0.2 - Partly cloudy 10 - - - -
25/04:00am 23.6 S 7 9 1012.7 - 0.0 - Partly cloudy 10 - - - -
25/03:30am 23.6 S 7 10 1012.6 - 0.0 - Partly cloudy 10 - - - -
25/03:17am 23.8 S 7 11 1012.7 - 0.0 - Partly cloudy 10 - - - -
25/03:00am 23.8 S 7 10 1012.8 - 0.0 - Cloudy 10 - - - -
25/02:30am 23.8 SSW 6 9 1012.9 - 0.0 - Partly cloudy 10 - - - -
25/02:00am 23.7 S 6 9 1013.3 - 0.0 - Partly cloudy 10 - - - -
25/01:30am 23.6 SSW 5 6 1013.6 - 0.0 - Partly cloudy 10 - - - -
25/01:00am 23.5 SW 4 5 1013.7 - 0.0 - Partly cloudy 10 - - - -
25/12:30am 23.7 SSW 4 5 1013.9 - 0.0 - Partly cloudy 10 - - - -
25/12:00am 24.2 SSE 3 3 1014.0 - 0.0 - - 10 - - - -
 
Date/Time
EST
Temp
°C
Wind Pressure Rain since
9am
mm
Weather Cloud Vis
km
Sea
Height
m
Swell
Dir  Spd
kts
Gust
kts
hPa Trend Height
m
Period
s
Dir
24/11:30pm 24.8 SE 4 5 1014.4 - 0.0 - - 10 - - - -
24/11:00pm 25.2 SE 5 7 1014.6 - 0.0 - - 10 - - - -
24/10:30pm 25.2 SE 5 7 1014.7 - 0.0 - - 10 - - - -
24/10:00pm 25.6 SE 6 8 1014.7 - 0.0 - Partly cloudy 10 - - - -
24/09:30pm 25.9 SE 7 9 1014.7 - 0.0 - Cloudy 10 - - - -
24/09:00pm 26.0 SE 7 8 1014.5 - 0.0 - Cloudy 10 - - - -
24/08:30pm 26.1 ESE 6 8 1014.3 - 0.0 - Cloudy 10 - - - -
24/08:00pm 26.1 ESE 7 10 1014.2 - 0.0 - Cloudy 10 - - - -
24/07:30pm 26.3 ESE 9 11 1014.0 - 0.0 - Partly cloudy 10 - - - -
24/07:00pm 26.3 ESE 8 11 1013.6 - 0.0 - Partly cloudy 10 - - - -
24/06:30pm 26.7 E 9 11 1013.3 - 0.0 - Partly cloudy 10 - - - -
24/06:00pm 27.1 E 6 8 1013.1 - 0.0 - Cloudy 10 - - - -
24/05:30pm 27.4 ESE 7 10 1012.7 - 0.0 - Partly cloudy 10 - - - -
24/05:00pm 28.1 ESE 6 8 1012.3 - 0.0 - Partly cloudy 10 - - - -
24/04:30pm 28.4 E 6 7 1012.1 - 0.0 - Partly cloudy 10 - - - -
24/04:00pm 29.2 E 7 10 1011.9 - 0.0 - Partly cloudy 10 - - - -
24/03:30pm 28.7 E 7 9 1012.0 - 0.0 - Partly cloudy 10 - - - -
24/03:00pm 28.9 E 5 8 1012.1 - 0.0 - Cloudy 10 - - - -
24/02:30pm 28.8 ENE 5 8 1012.2 - 0.0 - Partly cloudy 10 - - - -
24/02:00pm 29.1 ESE 5 9 1012.5 - 0.0 - Partly cloudy 10 - - - -
24/01:30pm 28.3 E 5 7 1012.8 - 0.0 - Partly cloudy 10 - - - -
24/01:00pm 28.0 ESE 7 10 1013.3 - 0.0 - Cloudy 10 - - - -
24/12:30pm 27.5 ESE 7 9 1013.8 - 0.0 - Cloudy 10 - - - -
24/12:00pm 27.1 NE 9 12 1014.4 - 0.0 - Mostly cloudy 10 - - - -
24/11:30am 25.2 ENE 11 14 1015.0 - 0.0 - Cloudy 10 - - - -
24/11:00am 26.1 E 13 18 1015.1 - 0.0 - Partly cloudy 10 - - - -
24/10:30am 27.6 ESE 13 17 1015.2 - 0.0 - Partly cloudy 10 - - - -
24/10:00am 28.7 ESE 6 9 1015.4 - 0.0 - Partly cloudy 10 - - - -
24/09:30am 27.6 SE 6 8 1015.3 - 0.0 - Partly cloudy 10 - - - -
24/09:00am 27.4 ESE 6 8 1015.2 - 3.2 - Mostly clear 10 - - - -
24/08:30am 26.3 S 5 7 1015.0 - 3.2 - - 10 - - - -
24/08:00am 24.7 SSW 4 6 1014.8 - 3.2 - - 10 - - - -
24/07:30am 23.6 SSW 5 7 1014.7 - 3.2 - Partly cloudy 10 - - - -
24/07:00am 22.9 SW 5 7 1014.3 - 3.2 - Cloudy 10 - - - -
24/06:42am 22.6 SW 6 7 1014.1 - 3.2 - Partly cloudy 10 - - - -
24/06:30am 22.5 SSW 5 7 1013.9 - 3.2 - Partly cloudy 9 - - - -
24/06:29am 22.5 SSW 4 6 1013.9 - 3.2 - Partly cloudy 9 - - - -
24/06:00am 22.2 SW 4 5 1013.8 - 3.2 Rain - 10 - - - -
24/05:30am 22.3 SW 4 5 1013.4 - 3.0 - Partly cloudy 10 - - - -
24/05:00am 22.3 SSW 6 8 1013.2 - 3.0 - Partly cloudy 10 - - - -
24/04:30am 22.6 SSW 1 4 1013.1 - 3.0 - Partly cloudy 10 - - - -
24/04:00am 22.6 CALM 0 0 1012.8 - 3.0 - Partly cloudy 10 - - - -
24/03:30am 22.7 SSW 5 7 1012.9 - 3.0 - Partly cloudy 10 - - - -
24/03:00am 22.6 SSW 5 7 1013.0 - 3.0 - Partly cloudy 10 - - - -
24/02:30am 22.8 SSW 5 7 1013.4 - 3.0 - Partly cloudy 10 - - - -
24/02:00am 22.9 SSW 6 7 1013.6 - 3.0 - - 10 - - - -
24/01:30am 23.2 SW 4 6 1013.8 - 3.0 - - 10 - - - -
24/01:05am 23.1 SW 1 4 1013.9 - 3.0 - Partly cloudy 10 - - - -
24/01:00am 23.3 SSW 3 5 1013.9 - 3.0 - Partly cloudy 10 - - - -
24/12:36am 23.5 SSW 6 8 1014.4 - 3.0 - Cloudy 10 - - - -
24/12:30am 23.6 SSW 6 8 1014.4 - 3.0 - Cloudy 8 - - - -
24/12:08am 23.8 SW 5 6 1014.6 - 3.0 - Partly cloudy 2 - - - -
24/12:03am 23.8 SW 5 6 1014.6 - 3.0 - Partly cloudy 5 - - - -
24/12:00am 23.8 SW 5 6 1014.6 - 3.0 - Mostly clear 10 - - - -
 
Date/Time
EST
Temp
°C
Wind Pressure Rain since
9am
mm
Weather Cloud Vis
km
Sea
Height
m
Swell
Dir  Spd
kts
Gust
kts
hPa Trend Height
m
Period
s
Dir
23/11:30pm 23.9 SSW 5 6 1014.8 - 3.0 - Partly cloudy 10 - - - -
23/11:00pm 24.0 SSW 4 5 1015.0 - 3.0 - - 10 - - - -
23/10:30pm 24.1 SSW 4 4 1015.0 - 3.0 - - 10 - - - -
23/10:00pm 24.0 CALM 0 0 1015.2 - 3.0 - - 10 - - - -
23/09:30pm 24.4 CALM 0 0 1015.5 - 3.0 - - 10 - - - -
23/09:00pm 24.6 SE 1 3 1015.6 - 3.0 - Cloudy 10 - - - -
23/08:30pm 24.5 SSE 4 4 1015.5 - 3.0 - - 10 - - - -
23/08:00pm 24.4 ESE 4 5 1015.3 - 3.0 - Partly cloudy 10 - - - -
23/07:30pm 24.6 CALM 0 0 1015.1 - 3.0 - - 10 - - - -
23/07:00pm 24.5 ESE 2 3 1014.7 - 3.0 - Partly cloudy 10 - - - -
23/06:30pm 24.7 ESE 3 4 1014.2 - 3.0 - - 10 - - - -
23/06:00pm 25.0 S 2 4 1014.0 - 3.0 - Cloudy 10 - - - -
23/05:30pm 25.2 SSW 3 4 1013.7 - 3.0 - Cloudy 10 - - - -
23/05:00pm 25.2 S 4 6 1013.6 - 3.0 - Cloudy 10 - - - -
23/04:30pm 25.5 SSE 5 7 1013.4 - 3.0 - Partly cloudy 10 - - - -
23/04:17pm 25.3 SE 5 7 1013.4 - 3.0 - Partly cloudy 10 - - - -
23/04:05pm 25.2 SSE 4 6 1013.4 - 3.0 - Partly cloudy 10 - - - -
23/04:00pm 25.5 SSE 3 4 1013.4 - 3.0 - Partly cloudy 10 - - - -
23/03:30pm 25.4 SSW 4 5 1013.6 - 3.0 - Partly cloudy 10 - - - -
23/03:00pm 25.5 S 3 5 1013.7 - 2.8 - Cloudy 10 - - - -
23/02:30pm 25.2 S 4 6 1013.9 - 2.8 - Partly cloudy 10 - - - -
23/02:00pm 25.7 SW 3 5 1014.0 - 2.8 - Partly cloudy 10 - - - -
23/01:30pm 25.7 SE 3 5 1014.1 - 2.6 - Partly cloudy 10 - - - -
23/01:00pm 25.8 SSW 3 4 1014.5 - 2.6 - Partly cloudy 10 - - - -
23/12:30pm 25.4 SSW 4 5 1014.6 - 2.6 - Partly cloudy 10 - - - -
23/12:00pm 24.9 SSE 3 4 1014.9 - 2.6 Recent precip. Cloudy 10 - - - -
23/11:36am 24.7 SE 5 6 1015.3 - 2.6 - Partly cloudy 10 - - - -
23/11:31am 24.6 ESE 6 9 1015.4 - 2.6 - Partly cloudy 10 - - - -
23/11:30am 24.5 ESE 7 9 1015.4 - 2.6 - Partly cloudy 10 - - - -
23/11:19am 24.6 ESE 8 11 1015.7 - 2.6 - Partly cloudy 2 - - - -
23/11:12am 25.3 S 6 9 1015.7 - 1.2 - Partly cloudy 5 - - - -
23/11:00am 25.4 SSW 6 8 1015.6 - 0.0 - Partly cloudy 10 - - - -
23/10:30am 25.2 SSW 6 8 1015.8 - 0.0 - Partly cloudy 10 - - - -
23/10:00am 24.4 SSW 5 7 1016.2 - 0.0 - Partly cloudy 10 - - - -
23/09:30am 24.5 SSW 5 7 1016.2 - 0.0 - Partly cloudy 10 - - - -
23/09:00am 24.2 SSW 4 5 1016.0 - 29.4 Recent precip. Cloudy 10 - - - -
23/08:44am 24.2 S 4 5 1015.8 - 29.4 - Partly cloudy 10 - - - -
23/08:37am 24.1 S 4 7 1015.8 - 29.4 - Partly cloudy 9 - - - -
23/08:30am 24.0 SSE 5 7 1015.8 - 29.2 - Partly cloudy 5 - - - -
23/08:25am 24.1 SE 4 5 1015.9 - 29.2 - Partly cloudy 5 - - - -
23/08:15am 23.8 SE 1 3 1015.9 - 29.0 - Partly cloudy 10 - - - -
23/08:00am 23.8 SSW 2 4 1015.7 - 28.8 - Partly cloudy 10 - - - -
23/07:30am 23.3 CALM 0 0 1015.1 - 28.8 - Partly cloudy 10 - - - -
23/07:00am 23.1 SSE 3 5 1014.8 - 28.8 - Partly cloudy 7 - - - -
23/06:30am 23.0 ESE 4 5 1014.6 - 28.4 - Partly cloudy 7 - - - -
23/06:00am 23.0 SSE 3 5 1014.2 - 28.2 Recent precip. Cloudy 10 - - - -
23/05:49am 22.9 ESE 6 8 1014.2 - 28.2 - Partly cloudy 8 - - - -
23/05:30am 23.1 ESE 6 9 1014.1 - 27.6 - Partly cloudy 3 - - - -
23/05:07am 23.1 SE 4 6 1014.0 - 25.8 - Partly cloudy 5 - - - -
23/05:06am 23.1 SE 4 6 1014.0 - 25.8 - Partly cloudy 6 - - - -
23/05:00am 23.1 SSE 3 5 1014.0 - 25.6 - Partly cloudy 9 - - - -
23/04:59am 23.1 SSE 3 5 1014.0 - 25.6 - Partly cloudy 10 - - - -
23/04:50am 23.2 SSE 3 5 1013.9 - 25.4 - Partly cloudy 6 - - - -
23/04:30am 23.2 ESE 3 4 1013.8 - 24.2 - Partly cloudy 7 - - - -
23/04:21am 23.2 S 3 5 1013.7 - 23.6 - Partly cloudy 4 - - - -
23/04:00am 23.2 SE 4 6 1013.5 - 21.8 - Partly cloudy 3 - - - -
23/03:45am 23.2 ENE 5 6 1013.5 - 20.4 - Partly cloudy 2 - - - -
23/03:30am 23.3 SE 3 4 1013.4 - 18.2 - Partly cloudy 3 - - - -
23/03:13am 23.3 SE 3 4 1013.2 - 16.8 - Partly cloudy 5 - - - -
23/03:07am 23.3 SE 4 5 1013.2 - 16.6 - Partly cloudy 10 - - - -
23/03:00am 23.2 SSE 3 4 1013.2 - 16.4 Rain Cloudy 8 - - - -
23/02:30am 23.6 SE 3 5 1013.3 - 13.8 - Partly cloudy 0.9 - - - -
23/02:17am 23.5 S 4 5 1013.3 - 10.4 - Partly cloudy 5 - - - -
23/02:00am 23.3 SSW 4 6 1013.4 - 9.6 - Partly cloudy 10 - - - -
23/01:30am 23.3 SSW 5 6 1013.5 - 9.4 - Partly cloudy 10 - - - -
23/01:00am 23.3 SSW 6 7 1013.8 - 9.0 - Partly cloudy 10 - - - -
23/12:30am 23.4 SSW 5 7 1014.0 - 9.0 - Partly cloudy 10 - - - -
23/12:00am 23.5 SSW 5 7 1014.5 - 8.8 - Mostly cloudy 10 - - - -
 
Date/Time
EST
Temp
°C
Wind Pressure Rain since
9am
mm
Weather Cloud Vis
km
Sea
Height
m
Swell
Dir  Spd
kts
Gust
kts
hPa Trend Height
m
Period
s
Dir
22/11:30pm 23.5 SSW 4 6 1014.6 - 8.8 - Partly cloudy 10 - - - -
22/11:00pm 23.4 SSW 5 6 1014.8 - 8.8 - Partly cloudy 10 - - - -
22/10:30pm 23.5 SSW 5 6 1014.7 - 8.6 - Partly cloudy 10 - - - -
22/10:00pm 23.7 SSW 4 5 1014.7 - 8.6 - Partly cloudy 10 - - - -
22/09:30pm 24.0 ESE 1 4 1014.9 - 8.6 - Cloudy 10 - - - -
22/09:00pm 24.0 E 5 6 1014.7 - 8.6 Rain Cloudy 10 - - - -
22/08:30pm 23.8 E 5 7 1014.5 - 8.4 - Cloudy 10 - - - -
22/08:00pm 23.8 ENE 5 7 1014.4 - 8.4 - Partly cloudy 10 - - - -
22/07:30pm 23.8 ENE 6 9 1014.1 - 8.0 - Partly cloudy 10 - - - -
22/07:00pm 23.7 ENE 7 9 1013.9 - 7.6 - Partly cloudy 10 - - - -
22/06:30pm 23.7 ENE 6 8 1013.8 - 7.2 - Partly cloudy 9 - - - -
22/06:00pm 23.7 E 6 8 1013.7 - 6.6 Rain Cloudy 10 - - - -
22/05:30pm 23.8 ENE 5 6 1013.6 - 6.2 - Partly cloudy 10 - - - -
22/05:00pm 23.8 ENE 6 8 1013.4 - 5.6 - Partly cloudy 10 - - - -
22/04:30pm 23.9 ENE 7 9 1013.3 - 5.4 - Partly cloudy 10 - - - -
22/04:00pm 24.0 ENE 6 8 1013.3 - 4.6 - Partly cloudy 9 - - - -
22/03:30pm 24.5 ENE 6 8 1013.2 - 4.2 - Partly cloudy 10 - - - -
22/03:00pm 24.6 NNE 7 9 1013.1 - 3.6 Recent precip. Cloudy 10 - - - -
22/02:30pm 24.7 NNE 7 11 1013.2 - 3.2 - Partly cloudy 8 - - - -
22/02:00pm 25.0 NNE 9 13 1013.2 - 2.0 - Partly cloudy 9 - - - -

Other Formats:

Comma delimited format used in spreadsheet applications
http://www.bom.gov.au/fwo/IDQ60701/IDQ60701.95565.axf

JavaScript Object Notation format (JSON) in row-major order
http://www.bom.gov.au/fwo/IDQ60701/IDQ60701.95565.json